Ortiz, Colorado
Current Conditions -  °F | °C
As of 10:52 AM on Friday 28 Nov 2014 (Local Time) from KALS Reporting Station
Clear Clear  
Wind Chill: 44°   Ceiling: Unl
Heat Index: 44°   Visibility: 10mi
Dew Point: 16°   Wind: 3mph
Humidity: 32%   Direction: 350°N
Pressure: 30.22"   Gusts: NA
Location:  37.1816°N, 106.262°W
Report Text: KALS 281752Z AUTO 35003KT 10SM CLR 07/M09 A3022 RMK AO2 SLP234 T00671089 10067 21150 58014
Loading
Personal Weather Stations






























Interactive Weather Map New forecast layout! Learn more

10-Day Weather Forecast

Advertisements
Track Severe Weather on mobile